sensor_id;sensor_type;location;lat;lon;timestamp;P1;durP1;ratioP1;P2;durP2;ratioP2
8213;SDS011;4148;47.974;7.824;2023-09-08T00:01:23;8.90;;;7.57;;
8213;SDS011;4148;47.974;7.824;2023-09-08T00:03:51;8.63;;;7.83;;
8213;SDS011;4148;47.974;7.824;2023-09-08T00:06:19;8.60;;;7.80;;
8213;SDS011;4148;47.974;7.824;2023-09-08T00:08:47;8.23;;;7.53;;
8213;SDS011;4148;47.974;7.824;2023-09-08T00:11:14;10.10;;;7.83;;
8213;SDS011;4148;47.974;7.824;2023-09-08T00:13:42;9.80;;;7.60;;
8213;SDS011;4148;47.974;7.824;2023-09-08T00:16:12;9.80;;;8.60;;
8213;SDS011;4148;47.974;7.824;2023-09-08T00:18:40;8.57;;;7.77;;
8213;SDS011;4148;47.974;7.824;2023-09-08T00:21:08;8.40;;;7.60;;
8213;SDS011;4148;47.974;7.824;2023-09-08T00:23:35;8.90;;;7.80;;
8213;SDS011;4148;47.974;7.824;2023-09-08T00:26:04;8.60;;;7.80;;
8213;SDS011;4148;47.974;7.824;2023-09-08T00:28:32;10.73;;;8.10;;
8213;SDS011;4148;47.974;7.824;2023-09-08T00:31:01;10.10;;;8.37;;
8213;SDS011;4148;47.974;7.824;2023-09-08T00:33:30;9.20;;;8.17;;
8213;SDS011;4148;47.974;7.824;2023-09-08T00:35:58;10.30;;;8.20;;
8213;SDS011;4148;47.974;7.824;2023-09-08T00:38:26;9.03;;;8.13;;
8213;SDS011;4148;47.974;7.824;2023-09-08T00:40:54;8.63;;;7.77;;
8213;SDS011;4148;47.974;7.824;2023-09-08T00:43:22;8.93;;;8.03;;
8213;SDS011;4148;47.974;7.824;2023-09-08T00:45:50;8.53;;;7.70;;
8213;SDS011;4148;47.974;7.824;2023-09-08T00:48:18;8.87;;;7.83;;
8213;SDS011;4148;47.974;7.824;2023-09-08T00:50:47;9.87;;;8.10;;
8213;SDS011;4148;47.974;7.824;2023-09-08T00:53:15;9.13;;;8.23;;
8213;SDS011;4148;47.974;7.824;2023-09-08T00:55:44;8.40;;;7.60;;
8213;SDS011;4148;47.974;7.824;2023-09-08T00:58:12;9.10;;;7.63;;
8213;SDS011;4148;47.974;7.824;2023-09-08T01:00:40;9.63;;;8.63;;
8213;SDS011;4148;47.974;7.824;2023-09-08T01:03:08;9.53;;;8.30;;
8213;SDS011;4148;47.974;7.824;2023-09-08T01:05:36;8.87;;;7.83;;
8213;SDS011;4148;47.974;7.824;2023-09-08T01:08:05;9.00;;;8.20;;
8213;SDS011;4148;47.974;7.824;2023-09-08T01:10:34;9.27;;;8.30;;
8213;SDS011;4148;47.974;7.824;2023-09-08T01:13:03;9.00;;;8.10;;
8213;SDS011;4148;47.974;7.824;2023-09-08T01:15:31;9.17;;;8.17;;
8213;SDS011;4148;47.974;7.824;2023-09-08T01:17:59;9.23;;;8.33;;
8213;SDS011;4148;47.974;7.824;2023-09-08T01:20:28;11.00;;;8.90;;
8213;SDS011;4148;47.974;7.824;2023-09-08T01:23:03;9.27;;;8.20;;
8213;SDS011;4148;47.974;7.824;2023-09-08T01:25:46;11.33;;;9.20;;
8213;SDS011;4148;47.974;7.824;2023-09-08T01:28:19;9.63;;;8.73;;
8213;SDS011;4148;47.974;7.824;2023-09-08T01:30:50;9.53;;;8.63;;
8213;SDS011;4148;47.974;7.824;2023-09-08T01:33:18;9.93;;;9.00;;
8213;SDS011;4148;47.974;7.824;2023-09-08T01:35:47;9.20;;;8.40;;
8213;SDS011;4148;47.974;7.824;2023-09-08T01:38:16;14.50;;;9.10;;
8213;SDS011;4148;47.974;7.824;2023-09-08T01:40:44;9.93;;;8.67;;
8213;SDS011;4148;47.974;7.824;2023-09-08T01:43:13;10.60;;;8.30;;
8213;SDS011;4148;47.974;7.824;2023-09-08T01:45:41;16.30;;;9.17;;
8213;SDS011;4148;47.974;7.824;2023-09-08T01:48:09;9.43;;;8.47;;
8213;SDS011;4148;47.974;7.824;2023-09-08T01:50:37;13.60;;;8.03;;
8213;SDS011;4148;47.974;7.824;2023-09-08T01:53:05;9.47;;;8.43;;
8213;SDS011;4148;47.974;7.824;2023-09-08T01:55:33;9.60;;;8.43;;
8213;SDS011;4148;47.974;7.824;2023-09-08T01:58:01;9.67;;;8.73;;
8213;SDS011;4148;47.974;7.824;2023-09-08T02:00:30;9.90;;;8.90;;
8213;SDS011;4148;47.974;7.824;2023-09-08T02:02:58;9.03;;;8.13;;
8213;SDS011;4148;47.974;7.824;2023-09-08T02:05:26;9.87;;;8.90;;
8213;SDS011;4148;47.974;7.824;2023-09-08T02:07:54;9.57;;;8.50;;
8213;SDS011;4148;47.974;7.824;2023-09-08T02:10:23;9.73;;;8.83;;
8213;SDS011;4148;47.974;7.824;2023-09-08T02:12:51;9.07;;;8.13;;
8213;SDS011;4148;47.974;7.824;2023-09-08T02:15:19;9.80;;;8.93;;
8213;SDS011;4148;47.974;7.824;2023-09-08T02:17:50;10.10;;;8.60;;
8213;SDS011;4148;47.974;7.824;2023-09-08T02:20:20;9.37;;;8.37;;
8213;SDS011;4148;47.974;7.824;2023-09-08T02:22:49;9.10;;;8.20;;
8213;SDS011;4148;47.974;7.824;2023-09-08T02:25:20;12.40;;;9.00;;
8213;SDS011;4148;47.974;7.824;2023-09-08T02:27:50;9.40;;;8.60;;
8213;SDS011;4148;47.974;7.824;2023-09-08T02:30:18;8.60;;;7.80;;
8213;SDS011;4148;47.974;7.824;2023-09-08T02:32:46;9.07;;;8.20;;
8213;SDS011;4148;47.974;7.824;2023-09-08T02:35:15;10.20;;;9.20;;
8213;SDS011;4148;47.974;7.824;2023-09-08T02:37:43;9.77;;;8.77;;
8213;SDS011;4148;47.974;7.824;2023-09-08T02:40:11;9.60;;;8.60;;
8213;SDS011;4148;47.974;7.824;2023-09-08T02:42:39;9.40;;;8.40;;
8213;SDS011;4148;47.974;7.824;2023-09-08T02:45:07;8.70;;;7.90;;
8213;SDS011;4148;47.974;7.824;2023-09-08T02:47:35;11.43;;;8.80;;
8213;SDS011;4148;47.974;7.824;2023-09-08T02:50:04;9.97;;;8.93;;
8213;SDS011;4148;47.974;7.824;2023-09-08T02:52:34;10.63;;;9.17;;
8213;SDS011;4148;47.974;7.824;2023-09-08T02:55:02;10.00;;;9.10;;
8213;SDS011;4148;47.974;7.824;2023-09-08T02:57:30;10.97;;;9.87;;
8213;SDS011;4148;47.974;7.824;2023-09-08T02:59:58;10.30;;;9.20;;
8213;SDS011;4148;47.974;7.824;2023-09-08T03:02:26;11.53;;;8.57;;
8213;SDS011;4148;47.974;7.824;2023-09-08T03:04:54;10.33;;;9.17;;
8213;SDS011;4148;47.974;7.824;2023-09-08T03:07:22;9.43;;;8.50;;
8213;SDS011;4148;47.974;7.824;2023-09-08T03:09:51;9.50;;;8.50;;
8213;SDS011;4148;47.974;7.824;2023-09-08T03:12:19;10.03;;;9.03;;
8213;SDS011;4148;47.974;7.824;2023-09-08T03:14:47;10.90;;;8.70;;
8213;SDS011;4148;47.974;7.824;2023-09-08T03:17:15;11.00;;;9.90;;
8213;SDS011;4148;47.974;7.824;2023-09-08T03:19:44;11.40;;;9.50;;
8213;SDS011;4148;47.974;7.824;2023-09-08T03:22:12;9.93;;;8.90;;
8213;SDS011;4148;47.974;7.824;2023-09-08T03:24:40;9.90;;;8.90;;
8213;SDS011;4148;47.974;7.824;2023-09-08T03:27:10;14.33;;;9.97;;
8213;SDS011;4148;47.974;7.824;2023-09-08T03:29:38;10.53;;;9.33;;
8213;SDS011;4148;47.974;7.824;2023-09-08T03:32:05;9.87;;;8.87;;
8213;SDS011;4148;47.974;7.824;2023-09-08T03:34:34;11.60;;;9.67;;
8213;SDS011;4148;47.974;7.824;2023-09-08T03:37:06;10.93;;;9.10;;
8213;SDS011;4148;47.974;7.824;2023-09-08T03:39:34;9.60;;;8.70;;
8213;SDS011;4148;47.974;7.824;2023-09-08T03:42:02;12.80;;;9.70;;
8213;SDS011;4148;47.974;7.824;2023-09-08T03:44:31;10.47;;;9.47;;
8213;SDS011;4148;47.974;7.824;2023-09-08T03:46:59;9.80;;;8.63;;
8213;SDS011;4148;47.974;7.824;2023-09-08T03:49:30;11.00;;;9.77;;
8213;SDS011;4148;47.974;7.824;2023-09-08T03:51:58;12.80;;;9.80;;
8213;SDS011;4148;47.974;7.824;2023-09-08T03:54:26;10.83;;;9.83;;
8213;SDS011;4148;47.974;7.824;2023-09-08T03:56:53;10.80;;;9.70;;
8213;SDS011;4148;47.974;7.824;2023-09-08T03:59:21;10.80;;;9.67;;
8213;SDS011;4148;47.974;7.824;2023-09-08T04:01:51;10.07;;;9.17;;
8213;SDS011;4148;47.974;7.824;2023-09-08T04:04:19;12.03;;;9.07;;
8213;SDS011;4148;47.974;7.824;2023-09-08T04:06:47;10.13;;;9.03;;
8213;SDS011;4148;47.974;7.824;2023-09-08T04:09:15;11.80;;;9.40;;
8213;SDS011;4148;47.974;7.824;2023-09-08T04:11:43;12.57;;;10.30;;
8213;SDS011;4148;47.974;7.824;2023-09-08T04:14:11;9.17;;;8.23;;
8213;SDS011;4148;47.974;7.824;2023-09-08T04:16:38;9.67;;;8.77;;
8213;SDS011;4148;47.974;7.824;2023-09-08T04:19:08;10.73;;;9.73;;
8213;SDS011;4148;47.974;7.824;2023-09-08T04:21:36;10.43;;;9.33;;
8213;SDS011;4148;47.974;7.824;2023-09-08T04:24:04;11.40;;;9.93;;
8213;SDS011;4148;47.974;7.824;2023-09-08T04:26:33;10.50;;;9.40;;
8213;SDS011;4148;47.974;7.824;2023-09-08T04:29:01;11.80;;;10.27;;
8213;SDS011;4148;47.974;7.824;2023-09-08T04:31:29;12.43;;;11.10;;
8213;SDS011;4148;47.974;7.824;2023-09-08T04:33:57;10.20;;;9.07;;
8213;SDS011;4148;47.974;7.824;2023-09-08T04:36:26;11.77;;;9.40;;
8213;SDS011;4148;47.974;7.824;2023-09-08T04:38:56;12.70;;;9.33;;
8213;SDS011;4148;47.974;7.824;2023-09-08T04:41:24;10.47;;;9.47;;
8213;SDS011;4148;47.974;7.824;2023-09-08T04:43:52;12.37;;;9.80;;
8213;SDS011;4148;47.974;7.824;2023-09-08T04:46:21;11.30;;;10.13;;
8213;SDS011;4148;47.974;7.824;2023-09-08T04:48:49;10.90;;;9.80;;
8213;SDS011;4148;47.974;7.824;2023-09-08T04:51:17;10.90;;;9.90;;
8213;SDS011;4148;47.974;7.824;2023-09-08T04:53:46;10.83;;;9.83;;
8213;SDS011;4148;47.974;7.824;2023-09-08T04:56:14;11.50;;;10.27;;
8213;SDS011;4148;47.974;7.824;2023-09-08T04:58:42;9.40;;;8.50;;
8213;SDS011;4148;47.974;7.824;2023-09-08T05:01:10;11.53;;;10.00;;
8213;SDS011;4148;47.974;7.824;2023-09-08T05:03:38;11.13;;;10.03;;
8213;SDS011;4148;47.974;7.824;2023-09-08T05:06:06;10.10;;;9.10;;
8213;SDS011;4148;47.974;7.824;2023-09-08T05:08:34;11.03;;;9.67;;
8213;SDS011;4148;47.974;7.824;2023-09-08T05:11:04;11.07;;;9.13;;
8213;SDS011;4148;47.974;7.824;2023-09-08T05:13:32;10.43;;;9.43;;
8213;SDS011;4148;47.974;7.824;2023-09-08T05:16:00;11.50;;;9.23;;
8213;SDS011;4148;47.974;7.824;2023-09-08T05:18:37;10.80;;;9.80;;
8213;SDS011;4148;47.974;7.824;2023-09-08T05:21:06;11.47;;;9.57;;
8213;SDS011;4148;47.974;7.824;2023-09-08T05:23:34;11.80;;;10.07;;
8213;SDS011;4148;47.974;7.824;2023-09-08T05:26:03;10.70;;;9.60;;
8213;SDS011;4148;47.974;7.824;2023-09-08T05:28:31;10.17;;;9.07;;
8213;SDS011;4148;47.974;7.824;2023-09-08T05:31:04;10.43;;;9.43;;
8213;SDS011;4148;47.974;7.824;2023-09-08T05:33:32;13.90;;;9.60;;
8213;SDS011;4148;47.974;7.824;2023-09-08T05:36:00;10.40;;;8.73;;
8213;SDS011;4148;47.974;7.824;2023-09-08T05:38:28;10.13;;;9.13;;
8213;SDS011;4148;47.974;7.824;2023-09-08T05:40:56;10.23;;;9.23;;
8213;SDS011;4148;47.974;7.824;2023-09-08T05:43:25;11.07;;;9.07;;
8213;SDS011;4148;47.974;7.824;2023-09-08T05:45:53;11.60;;;10.17;;
8213;SDS011;4148;47.974;7.824;2023-09-08T05:48:21;12.60;;;9.77;;
8213;SDS011;4148;47.974;7.824;2023-09-08T05:50:49;10.70;;;9.60;;
8213;SDS011;4148;47.974;7.824;2023-09-08T05:53:17;11.57;;;10.30;;
8213;SDS011;4148;47.974;7.824;2023-09-08T05:55:45;10.70;;;9.60;;
8213;SDS011;4148;47.974;7.824;2023-09-08T05:58:13;10.73;;;9.63;;
8213;SDS011;4148;47.974;7.824;2023-09-08T06:00:42;12.20;;;9.80;;
8213;SDS011;4148;47.974;7.824;2023-09-08T06:03:10;10.60;;;9.43;;
8213;SDS011;4148;47.974;7.824;2023-09-08T06:05:38;11.73;;;9.80;;
8213;SDS011;4148;47.974;7.824;2023-09-08T06:08:06;12.07;;;9.70;;
8213;SDS011;4148;47.974;7.824;2023-09-08T06:10:34;10.80;;;9.67;;
8213;SDS011;4148;47.974;7.824;2023-09-08T06:13:02;10.67;;;9.57;;
8213;SDS011;4148;47.974;7.824;2023-09-08T06:15:31;9.67;;;8.77;;
8213;SDS011;4148;47.974;7.824;2023-09-08T06:18:00;10.87;;;9.47;;
8213;SDS011;4148;47.974;7.824;2023-09-08T06:20:30;10.30;;;9.30;;
8213;SDS011;4148;47.974;7.824;2023-09-08T06:22:58;13.60;;;10.17;;
8213;SDS011;4148;47.974;7.824;2023-09-08T06:25:26;10.30;;;9.20;;
8213;SDS011;4148;47.974;7.824;2023-09-08T06:27:54;10.50;;;9.40;;
8213;SDS011;4148;47.974;7.824;2023-09-08T06:30:22;10.47;;;9.37;;
8213;SDS011;4148;47.974;7.824;2023-09-08T06:32:50;10.50;;;9.50;;
8213;SDS011;4148;47.974;7.824;2023-09-08T06:35:19;11.73;;;10.50;;
8213;SDS011;4148;47.974;7.824;2023-09-08T06:37:48;10.63;;;9.50;;
8213;SDS011;4148;47.974;7.824;2023-09-08T06:40:16;11.40;;;9.70;;
8213;SDS011;4148;47.974;7.824;2023-09-08T06:42:43;10.53;;;9.53;;
8213;SDS011;4148;47.974;7.824;2023-09-08T06:45:11;11.13;;;9.53;;
8213;SDS011;4148;47.974;7.824;2023-09-08T06:47:39;11.53;;;10.37;;
8213;SDS011;4148;47.974;7.824;2023-09-08T06:50:08;12.43;;;9.57;;
8213;SDS011;4148;47.974;7.824;2023-09-08T06:52:37;10.47;;;9.37;;
8213;SDS011;4148;47.974;7.824;2023-09-08T06:55:05;13.17;;;9.87;;
8213;SDS011;4148;47.974;7.824;2023-09-08T06:57:34;10.43;;;9.30;;
8213;SDS011;4148;47.974;7.824;2023-09-08T07:00:02;10.10;;;9.20;;
8213;SDS011;4148;47.974;7.824;2023-09-08T07:02:33;10.67;;;9.67;;
8213;SDS011;4148;47.974;7.824;2023-09-08T07:05:01;11.43;;;10.10;;
8213;SDS011;4148;47.974;7.824;2023-09-08T07:07:34;9.93;;;8.90;;
8213;SDS011;4148;47.974;7.824;2023-09-08T07:10:04;9.77;;;8.53;;
8213;SDS011;4148;47.974;7.824;2023-09-08T07:12:32;12.33;;;10.10;;
8213;SDS011;4148;47.974;7.824;2023-09-08T07:15:00;10.90;;;9.80;;
8213;SDS011;4148;47.974;7.824;2023-09-08T07:17:28;10.37;;;9.33;;
8213;SDS011;4148;47.974;7.824;2023-09-08T07:19:56;10.87;;;9.73;;
8213;SDS011;4148;47.974;7.824;2023-09-08T07:22:24;9.97;;;8.97;;
8213;SDS011;4148;47.974;7.824;2023-09-08T07:24:52;10.33;;;9.33;;
8213;SDS011;4148;47.974;7.824;2023-09-08T07:27:22;11.93;;;9.70;;
8213;SDS011;4148;47.974;7.824;2023-09-08T07:29:49;11.03;;;9.87;;
8213;SDS011;4148;47.974;7.824;2023-09-08T07:32:18;10.70;;;9.63;;
8213;SDS011;4148;47.974;7.824;2023-09-08T07:34:46;10.90;;;9.80;;
8213;SDS011;4148;47.974;7.824;2023-09-08T07:37:21;11.93;;;10.53;;
8213;SDS011;4148;47.974;7.824;2023-09-08T07:39:49;10.30;;;9.30;;
8213;SDS011;4148;47.974;7.824;2023-09-08T07:42:17;14.70;;;10.20;;
8213;SDS011;4148;47.974;7.824;2023-09-08T07:44:47;11.00;;;9.90;;
8213;SDS011;4148;47.974;7.824;2023-09-08T07:47:14;11.00;;;9.90;;
8213;SDS011;4148;47.974;7.824;2023-09-08T07:49:44;11.43;;;10.20;;
8213;SDS011;4148;47.974;7.824;2023-09-08T07:52:13;13.37;;;11.07;;
8213;SDS011;4148;47.974;7.824;2023-09-08T07:54:42;11.07;;;10.00;;
8213;SDS011;4148;47.974;7.824;2023-09-08T07:57:09;10.90;;;9.80;;
8213;SDS011;4148;47.974;7.824;2023-09-08T07:59:37;10.90;;;9.90;;
8213;SDS011;4148;47.974;7.824;2023-09-08T08:02:07;12.03;;;9.83;;
8213;SDS011;4148;47.974;7.824;2023-09-08T08:04:34;11.50;;;10.40;;
8213;SDS011;4148;47.974;7.824;2023-09-08T08:07:02;14.23;;;9.10;;
8213;SDS011;4148;47.974;7.824;2023-09-08T08:09:30;11.63;;;10.53;;
8213;SDS011;4148;47.974;7.824;2023-09-08T08:11:58;10.70;;;9.53;;
8213;SDS011;4148;47.974;7.824;2023-09-08T08:14:27;15.87;;;9.70;;
8213;SDS011;4148;47.974;7.824;2023-09-08T08:16:55;12.17;;;9.70;;
8213;SDS011;4148;47.974;7.824;2023-09-08T08:19:24;11.90;;;9.43;;
8213;SDS011;4148;47.974;7.824;2023-09-08T08:21:52;11.20;;;10.00;;
8213;SDS011;4148;47.974;7.824;2023-09-08T08:24:22;11.30;;;10.30;;
8213;SDS011;4148;47.974;7.824;2023-09-08T08:26:50;11.33;;;10.17;;
8213;SDS011;4148;47.974;7.824;2023-09-08T08:29:19;11.40;;;10.37;;
8213;SDS011;4148;47.974;7.824;2023-09-08T08:31:47;12.00;;;10.80;;
8213;SDS011;4148;47.974;7.824;2023-09-08T08:34:14;11.30;;;10.20;;
8213;SDS011;4148;47.974;7.824;2023-09-08T08:36:44;11.20;;;9.50;;
8213;SDS011;4148;47.974;7.824;2023-09-08T08:39:12;12.77;;;10.17;;
8213;SDS011;4148;47.974;7.824;2023-09-08T08:41:40;11.40;;;9.87;;
8213;SDS011;4148;47.974;7.824;2023-09-08T08:44:08;10.80;;;9.67;;
8213;SDS011;4148;47.974;7.824;2023-09-08T08:46:36;20.93;;;9.50;;
8213;SDS011;4148;47.974;7.824;2023-09-08T08:49:04;9.80;;;8.90;;
8213;SDS011;4148;47.974;7.824;2023-09-08T08:51:34;10.43;;;9.43;;
8213;SDS011;4148;47.974;7.824;2023-09-08T08:54:05;11.40;;;9.90;;
8213;SDS011;4148;47.974;7.824;2023-09-08T08:56:33;9.33;;;8.53;;
8213;SDS011;4148;47.974;7.824;2023-09-08T08:59:03;10.63;;;9.53;;
8213;SDS011;4148;47.974;7.824;2023-09-08T09:01:31;10.50;;;9.50;;
8213;SDS011;4148;47.974;7.824;2023-09-08T09:04:00;10.90;;;9.90;;
8213;SDS011;4148;47.974;7.824;2023-09-08T09:06:28;10.23;;;9.33;;
8213;SDS011;4148;47.974;7.824;2023-09-08T09:08:56;16.97;;;9.60;;
8213;SDS011;4148;47.974;7.824;2023-09-08T09:11:26;10.60;;;9.60;;
8213;SDS011;4148;47.974;7.824;2023-09-08T09:13:54;11.70;;;10.30;;
8213;SDS011;4148;47.974;7.824;2023-09-08T09:16:22;15.07;;;9.93;;
8213;SDS011;4148;47.974;7.824;2023-09-08T09:18:54;10.83;;;9.83;;
8213;SDS011;4148;47.974;7.824;2023-09-08T09:21:24;10.30;;;9.30;;
8213;SDS011;4148;47.974;7.824;2023-09-08T09:24:03;9.40;;;8.60;;
8213;SDS011;4148;47.974;7.824;2023-09-08T09:26:32;9.63;;;8.73;;
8213;SDS011;4148;47.974;7.824;2023-09-08T09:29:00;10.00;;;9.00;;
8213;SDS011;4148;47.974;7.824;2023-09-08T09:31:29;17.63;;;10.20;;
8213;SDS011;4148;47.974;7.824;2023-09-08T09:34:03;9.87;;;8.90;;
8213;SDS011;4148;47.974;7.824;2023-09-08T09:36:32;11.53;;;10.50;;
8213;SDS011;4148;47.974;7.824;2023-09-08T09:39:00;10.33;;;9.47;;
8213;SDS011;4148;47.974;7.824;2023-09-08T09:41:29;11.07;;;10.00;;
8213;SDS011;4148;47.974;7.824;2023-09-08T09:43:58;11.17;;;9.87;;
8213;SDS011;4148;47.974;7.824;2023-09-08T09:46:27;13.10;;;9.00;;
8213;SDS011;4148;47.974;7.824;2023-09-08T09:48:55;10.20;;;9.30;;
8213;SDS011;4148;47.974;7.824;2023-09-08T09:51:24;10.87;;;9.80;;
8213;SDS011;4148;47.974;7.824;2023-09-08T09:53:53;10.40;;;9.50;;
8213;SDS011;4148;47.974;7.824;2023-09-08T09:56:22;12.07;;;10.20;;
8213;SDS011;4148;47.974;7.824;2023-09-08T09:58:52;9.97;;;9.07;;
8213;SDS011;4148;47.974;7.824;2023-09-08T10:01:22;9.23;;;8.33;;
8213;SDS011;4148;47.974;7.824;2023-09-08T10:03:52;12.00;;;8.70;;
8213;SDS011;4148;47.974;7.824;2023-09-08T10:06:21;10.57;;;9.57;;
8213;SDS011;4148;47.974;7.824;2023-09-08T10:08:50;9.50;;;8.43;;
8213;SDS011;4148;47.974;7.824;2023-09-08T10:11:20;10.10;;;9.20;;
8213;SDS011;4148;47.974;7.824;2023-09-08T10:13:50;10.60;;;9.50;;
8213;SDS011;4148;47.974;7.824;2023-09-08T10:16:22;10.13;;;9.10;;
8213;SDS011;4148;47.974;7.824;2023-09-08T10:18:53;11.20;;;8.53;;
8213;SDS011;4148;47.974;7.824;2023-09-08T10:21:25;10.53;;;9.53;;
8213;SDS011;4148;47.974;7.824;2023-09-08T10:23:55;14.00;;;9.00;;
8213;SDS011;4148;47.974;7.824;2023-09-08T10:26:31;9.07;;;8.17;;
8213;SDS011;4148;47.974;7.824;2023-09-08T10:29:01;10.00;;;9.00;;
8213;SDS011;4148;47.974;7.824;2023-09-08T10:31:31;8.70;;;7.90;;
8213;SDS011;4148;47.974;7.824;2023-09-08T10:33:59;9.90;;;8.70;;
8213;SDS011;4148;47.974;7.824;2023-09-08T10:36:29;10.53;;;9.43;;
8213;SDS011;4148;47.974;7.824;2023-09-08T10:45:00;9.03;;;8.23;;
8213;SDS011;4148;47.974;7.824;2023-09-08T10:47:39;8.70;;;8.00;;
8213;SDS011;4148;47.974;7.824;2023-09-08T10:50:26;10.20;;;8.70;;
8213;SDS011;4148;47.974;7.824;2023-09-08T10:53:04;9.30;;;8.50;;
8213;SDS011;4148;47.974;7.824;2023-09-08T10:55:41;9.13;;;8.33;;
8213;SDS011;4148;47.974;7.824;2023-09-08T10:58:32;8.60;;;7.80;;
8213;SDS011;4148;47.974;7.824;2023-09-08T11:01:03;8.40;;;7.80;;
8213;SDS011;4148;47.974;7.824;2023-09-08T11:03:43;8.23;;;7.43;;
8213;SDS011;4148;47.974;7.824;2023-09-08T11:06:15;8.10;;;7.40;;
8213;SDS011;4148;47.974;7.824;2023-09-08T11:08:45;8.73;;;7.40;;
8213;SDS011;4148;47.974;7.824;2023-09-08T11:11:14;8.50;;;7.70;;
8213;SDS011;4148;47.974;7.824;2023-09-08T11:13:43;7.17;;;6.53;;
8213;SDS011;4148;47.974;7.824;2023-09-08T11:16:13;11.47;;;7.73;;
8213;SDS011;4148;47.974;7.824;2023-09-08T11:18:43;7.67;;;6.97;;
8213;SDS011;4148;47.974;7.824;2023-09-08T11:21:11;7.80;;;7.10;;
8213;SDS011;4148;47.974;7.824;2023-09-08T11:23:39;8.30;;;7.60;;
8213;SDS011;4148;47.974;7.824;2023-09-08T11:26:08;7.90;;;6.73;;
8213;SDS011;4148;47.974;7.824;2023-09-08T11:28:36;7.70;;;7.00;;
8213;SDS011;4148;47.974;7.824;2023-09-08T11:31:05;7.30;;;6.80;;
8213;SDS011;4148;47.974;7.824;2023-09-08T11:33:33;8.13;;;6.90;;
8213;SDS011;4148;47.974;7.824;2023-09-08T11:36:12;8.33;;;7.63;;
8213;SDS011;4148;47.974;7.824;2023-09-08T11:38:45;9.53;;;6.60;;
8213;SDS011;4148;47.974;7.824;2023-09-08T11:41:13;9.30;;;6.93;;
8213;SDS011;4148;47.974;7.824;2023-09-08T11:43:41;7.50;;;6.80;;
8213;SDS011;4148;47.974;7.824;2023-09-08T11:46:10;8.47;;;7.50;;
8213;SDS011;4148;47.974;7.824;2023-09-08T11:48:38;7.53;;;6.77;;
8213;SDS011;4148;47.974;7.824;2023-09-08T11:51:06;8.10;;;7.30;;
8213;SDS011;4148;47.974;7.824;2023-09-08T11:53:36;7.60;;;6.90;;
8213;SDS011;4148;47.974;7.824;2023-09-08T11:56:04;7.67;;;6.60;;
8213;SDS011;4148;47.974;7.824;2023-09-08T11:58:33;7.70;;;6.03;;
8213;SDS011;4148;47.974;7.824;2023-09-08T12:01:02;7.07;;;6.40;;
8213;SDS011;4148;47.974;7.824;2023-09-08T12:03:31;6.27;;;5.53;;
8213;SDS011;4148;47.974;7.824;2023-09-08T12:05:59;6.27;;;5.17;;
8213;SDS011;4148;47.974;7.824;2023-09-08T12:08:28;5.77;;;5.27;;
8213;SDS011;4148;47.974;7.824;2023-09-08T12:10:58;6.30;;;5.70;;
8213;SDS011;4148;47.974;7.824;2023-09-08T12:13:26;8.00;;;6.13;;
8213;SDS011;4148;47.974;7.824;2023-09-08T12:15:54;6.53;;;5.93;;
8213;SDS011;4148;47.974;7.824;2023-09-08T12:18:36;6.43;;;5.93;;
8213;SDS011;4148;47.974;7.824;2023-09-08T12:21:05;6.43;;;5.50;;
8213;SDS011;4148;47.974;7.824;2023-09-08T12:23:33;6.37;;;5.77;;
8213;SDS011;4148;47.974;7.824;2023-09-08T12:26:02;8.30;;;6.13;;
8213;SDS011;4148;47.974;7.824;2023-09-08T12:28:30;6.90;;;6.23;;
8213;SDS011;4148;47.974;7.824;2023-09-08T12:31:00;7.60;;;6.00;;
8213;SDS011;4148;47.974;7.824;2023-09-08T12:33:28;8.50;;;6.33;;
8213;SDS011;4148;47.974;7.824;2023-09-08T12:35:56;8.50;;;6.47;;
8213;SDS011;4148;47.974;7.824;2023-09-08T12:38:30;6.20;;;5.50;;
8213;SDS011;4148;47.974;7.824;2023-09-08T12:40:58;11.23;;;6.10;;
8213;SDS011;4148;47.974;7.824;2023-09-08T12:43:27;6.40;;;5.40;;
8213;SDS011;4148;47.974;7.824;2023-09-08T12:45:56;7.03;;;6.10;;
8213;SDS011;4148;47.974;7.824;2023-09-08T12:48:24;6.40;;;5.73;;
8213;SDS011;4148;47.974;7.824;2023-09-08T12:50:52;8.90;;;6.93;;
8213;SDS011;4148;47.974;7.824;2023-09-08T12:53:20;6.70;;;6.00;;
8213;SDS011;4148;47.974;7.824;2023-09-08T12:55:49;6.83;;;6.20;;
8213;SDS011;4148;47.974;7.824;2023-09-08T12:58:17;7.20;;;5.90;;
8213;SDS011;4148;47.974;7.824;2023-09-08T13:00:46;6.80;;;6.20;;
8213;SDS011;4148;47.974;7.824;2023-09-08T13:03:14;8.53;;;6.00;;
8213;SDS011;4148;47.974;7.824;2023-09-08T13:05:42;6.80;;;5.97;;
8213;SDS011;4148;47.974;7.824;2023-09-08T13:08:10;8.47;;;6.20;;
8213;SDS011;4148;47.974;7.824;2023-09-08T13:10:41;7.30;;;6.30;;
8213;SDS011;4148;47.974;7.824;2023-09-08T13:13:09;9.20;;;6.43;;
8213;SDS011;4148;47.974;7.824;2023-09-08T13:15:37;7.53;;;6.13;;
8213;SDS011;4148;47.974;7.824;2023-09-08T13:18:06;6.10;;;5.60;;
8213;SDS011;4148;47.974;7.824;2023-09-08T13:20:34;6.47;;;5.87;;
8213;SDS011;4148;47.974;7.824;2023-09-08T13:23:03;6.50;;;5.90;;
8213;SDS011;4148;47.974;7.824;2023-09-08T13:25:31;7.77;;;5.60;;
8213;SDS011;4148;47.974;7.824;2023-09-08T13:27:59;8.10;;;6.40;;
8213;SDS011;4148;47.974;7.824;2023-09-08T13:30:26;6.37;;;5.73;;
8213;SDS011;4148;47.974;7.824;2023-09-08T13:32:54;7.47;;;5.70;;
8213;SDS011;4148;47.974;7.824;2023-09-08T13:35:24;6.30;;;5.70;;
8213;SDS011;4148;47.974;7.824;2023-09-08T13:37:52;6.23;;;5.53;;
8213;SDS011;4148;47.974;7.824;2023-09-08T13:40:20;6.80;;;5.50;;
8213;SDS011;4148;47.974;7.824;2023-09-08T13:42:48;5.83;;;4.90;;
8213;SDS011;4148;47.974;7.824;2023-09-08T13:45:16;8.17;;;5.37;;
8213;SDS011;4148;47.974;7.824;2023-09-08T13:47:44;8.43;;;5.50;;
8213;SDS011;4148;47.974;7.824;2023-09-08T13:50:13;5.40;;;4.87;;
8213;SDS011;4148;47.974;7.824;2023-09-08T13:52:44;5.33;;;4.53;;
8213;SDS011;4148;47.974;7.824;2023-09-08T13:55:13;5.17;;;4.70;;
8213;SDS011;4148;47.974;7.824;2023-09-08T13:57:44;6.03;;;4.57;;
8213;SDS011;4148;47.974;7.824;2023-09-08T14:00:15;8.13;;;5.40;;
8213;SDS011;4148;47.974;7.824;2023-09-08T14:02:49;6.80;;;5.20;;
8213;SDS011;4148;47.974;7.824;2023-09-08T14:05:22;5.47;;;4.97;;
8213;SDS011;4148;47.974;7.824;2023-09-08T14:07:56;6.70;;;5.43;;
8213;SDS011;4148;47.974;7.824;2023-09-08T14:10:40;6.63;;;4.90;;
8213;SDS011;4148;47.974;7.824;2023-09-08T14:13:23;5.80;;;5.10;;
8213;SDS011;4148;47.974;7.824;2023-09-08T14:15:51;5.13;;;4.63;;
8213;SDS011;4148;47.974;7.824;2023-09-08T14:18:19;5.23;;;4.73;;
8213;SDS011;4148;47.974;7.824;2023-09-08T14:20:47;7.20;;;4.40;;
8213;SDS011;4148;47.974;7.824;2023-09-08T14:23:16;4.90;;;4.50;;
8213;SDS011;4148;47.974;7.824;2023-09-08T14:25:44;8.77;;;4.73;;
8213;SDS011;4148;47.974;7.824;2023-09-08T14:28:12;4.57;;;4.17;;
8213;SDS011;4148;47.974;7.824;2023-09-08T14:30:40;6.20;;;4.80;;
8213;SDS011;4148;47.974;7.824;2023-09-08T14:33:08;6.93;;;4.77;;
8213;SDS011;4148;47.974;7.824;2023-09-08T14:35:40;4.87;;;4.10;;
8213;SDS011;4148;47.974;7.824;2023-09-08T14:38:08;7.50;;;5.10;;
8213;SDS011;4148;47.974;7.824;2023-09-08T14:40:38;9.50;;;5.77;;
8213;SDS011;4148;47.974;7.824;2023-09-08T14:43:05;7.30;;;5.43;;
8213;SDS011;4148;47.974;7.824;2023-09-08T14:45:33;6.53;;;4.40;;
8213;SDS011;4148;47.974;7.824;2023-09-08T14:48:01;7.23;;;4.90;;
8213;SDS011;4148;47.974;7.824;2023-09-08T14:50:30;5.50;;;4.90;;
8213;SDS011;4148;47.974;7.824;2023-09-08T14:52:58;6.10;;;4.93;;
8213;SDS011;4148;47.974;7.824;2023-09-08T14:55:26;6.17;;;4.97;;
8213;SDS011;4148;47.974;7.824;2023-09-08T14:57:55;4.90;;;4.50;;
8213;SDS011;4148;47.974;7.824;2023-09-08T15:00:23;8.30;;;5.10;;
8213;SDS011;4148;47.974;7.824;2023-09-08T15:02:51;5.33;;;4.83;;
8213;SDS011;4148;47.974;7.824;2023-09-08T15:05:19;6.40;;;5.80;;
8213;SDS011;4148;47.974;7.824;2023-09-08T15:07:47;6.03;;;5.37;;
8213;SDS011;4148;47.974;7.824;2023-09-08T15:10:16;9.07;;;5.43;;
8213;SDS011;4148;47.974;7.824;2023-09-08T15:12:43;7.57;;;4.90;;
8213;SDS011;4148;47.974;7.824;2023-09-08T15:15:14;7.13;;;5.57;;
8213;SDS011;4148;47.974;7.824;2023-09-08T15:17:42;5.40;;;4.90;;
8213;SDS011;4148;47.974;7.824;2023-09-08T15:20:10;5.63;;;5.00;;
8213;SDS011;4148;47.974;7.824;2023-09-08T15:22:39;6.03;;;5.50;;
8213;SDS011;4148;47.974;7.824;2023-09-08T15:25:07;5.67;;;5.17;;